To NAV CANADA Home Page Login to a new session Search on AWWS site Feedback and Comments Disclaimer Vers la page française équivalente Tips FAQ What's new on the site To the Forecasts and Observations / NOTAM section To "File a Flight Plan" website Publications and other links Update of the User's profile FIC Telephone Numbers My Weather Data Folder Route Weather Data Regional Weather Data Local Weather Data To the Forecasts and Observations / NOTAM section
Request Generated 01/21/2017 at 02:09:21 UTC . Weather information available at that time is displayed.

METAR/TAF

BRANDON MUNICIPALITY/MB    

SPECI CYBR 210205Z 08006KT 1/2SM FZFG OVC002 M03/M03 A2940 RMK FG4ST4
SLP985=
METAR CYBR 210200Z 08007KT 3/4SM BR OVC002 M03/M03 A2940 RMK FG2ST6
SLP985=
SPECI CYBR 210148Z 07007KT 1SM BR OVC002 M03/M03 A2939 RMK ST8
SLP983=
SPECI CYBR 210137Z 07006KT 2SM BR OVC003 M03/M03 A2939 RMK ST8
SLP983=
SPECI CYBR 210123Z 06006KT 4SM BR OVC003 M03/M04 A2939 RMK ST8
SLP982=
METAR CYBR 210100Z 05003KT 8SM BKN005 OVC008 M03/M04 A2939 RMK ST6ST2
SLP983=
METAR CYBR 210000Z 06004KT 8SM OVC006 M03/M05 A2940 RMK ST8 SLP986=

TAF AMD CYBR 210201Z 2102/2112 07008KT 5SM BR OVC005 TEMPO 2102/2112
1SM BR OVC002
BECMG 2103/2105 13010KT
RMK NXT FCST BY 210600Z=
Your time UTC time
Weather data provided by Environment Canada and NAV CANADA